Time,TemperatureF,DewpointF,PressureIn,WindDirection,WindDirectionDegrees,WindSpeedMPH,WindSpeedGustMPH,Humidity,HourlyPrecipIn,Conditions,Clouds,dailyrainin,SolarRadiationWatts/m^2,SoftwareType,DateUTC
2013-06-14 00:02:00,63.0,11.0,-100.00,SSW,208,20.0,30.0,13,-99.99,,,0.00,0.000000,,2013-06-14 07:02:00,
2013-06-14 00:12:00,63.0,11.0,-100.00,SSW,208,20.0,30.0,13,-99.99,,,0.00,0.000000,,2013-06-14 07:12:00,
2013-06-14 00:53:00,65.0,11.0,-100.00,SSW,211,17.0,24.0,12,0.00,,,0.00,0.000000,,2013-06-14 07:53:00,
2013-06-14 01:02:00,65.0,11.0,-100.00,SSW,211,17.0,24.0,12,0.00,,,0.00,0.000000,,2013-06-14 08:02:00,
2013-06-14 01:12:00,65.0,11.0,-100.00,SSW,211,17.0,24.0,12,0.00,,,0.00,0.000000,,2013-06-14 08:12:00,
2013-06-14 01:22:00,65.0,11.0,-100.00,SSW,211,17.0,24.0,12,0.00,,,0.00,0.000000,,2013-06-14 08:22:00,
2013-06-14 01:53:00,64.0,10.0,-100.00,SSW,210,14.0,21.0,12,0.00,,,0.00,0.000000,,2013-06-14 08:53:00,
2013-06-14 02:22:00,64.0,10.0,-100.00,SSW,210,14.0,21.0,12,0.00,,,0.00,0.000000,,2013-06-14 09:22:00,
2013-06-14 02:53:00,69.0,5.0,-100.00,WNW,299,7.0,16.0,8,0.00,,,0.00,0.000000,,2013-06-14 09:53:00,
2013-06-14 04:52:00,66.0,6.0,-100.00,NW,323,10.0,18.0,9,0.00,,,0.00,0.000000,,2013-06-14 11:52:00,
2013-06-14 05:52:00,66.0,6.0,-100.00,NNW,332,12.0,16.0,9,0.00,,,0.00,0.000000,,2013-06-14 12:52:00,
2013-06-14 06:53:00,67.0,4.0,-100.00,NNW,341,13.0,17.0,8,0.00,,,0.00,44.000000,,2013-06-14 13:53:00,
2013-06-14 07:52:00,69.0,2.0,-100.00,NNW,338,12.0,17.0,7,0.00,,,0.00,252.000000,,2013-06-14 14:52:00,
2013-06-14 08:53:00,72.0,1.0,-100.00,NNW,340,10.0,17.0,6,0.00,,,0.00,502.000000,,2013-06-14 15:53:00,
2013-06-14 09:53:00,76.0,0.0,-100.00,North,351,7.0,15.0,5,0.00,,,0.00,755.000000,,2013-06-14 16:53:00,
2013-06-14 10:53:00,81.0,-7.0,-100.00,North,2,7.0,15.0,3,0.00,,,0.00,979.000000,,2013-06-14 17:53:00,
2013-06-14 11:52:00,80.0,-29.0,-100.00,NNE,28,10.0,19.0,1,0.00,,,0.00,1154.000000,,2013-06-14 18:52:00,
2013-06-14 12:53:00,86.0,-25.0,-100.00,NE,47,7.0,18.0,1,0.00,,,0.00,1258.000000,,2013-06-14 19:53:00,
2013-06-14 13:53:00,86.0,-17.0,-100.00,SE,136,8.0,15.0,0,0.00,,,0.00,1287.000000,,2013-06-14 20:53:00,
2013-06-14 14:02:00,86.0,-99.9,-100.00,SE,136,8.0,15.0,0,0.00,,,0.00,1287.000000,,2013-06-14 21:02:00,
2013-06-14 14:12:00,86.0,-99.9,-100.00,SE,136,8.0,15.0,0,0.00,,,0.00,1287.000000,,2013-06-14 21:12:00,
2013-06-14 14:22:00,86.0,-99.9,-100.00,SE,136,8.0,15.0,0,0.00,,,0.00,1287.000000,,2013-06-14 21:22:00,
2013-06-14 14:52:00,86.0,-17.0,-100.00,SSW,210,8.0,21.0,0,0.00,,,0.00,1258.000000,,2013-06-14 21:52:00,
2013-06-14 15:02:00,86.0,-99.9,-100.00,SSW,210,8.0,21.0,0,0.00,,,0.00,1258.000000,,2013-06-14 22:02:00,
2013-06-14 15:12:00,86.0,-99.9,-100.00,SSW,210,8.0,21.0,0,0.00,,,0.00,1258.000000,,2013-06-14 22:12:00,
2013-06-14 15:22:00,86.0,-99.9,-100.00,SSW,210,8.0,21.0,0,0.00,,,0.00,1258.000000,,2013-06-14 22:22:00,
2013-06-14 15:53:00,88.0,-99.9,-100.00,SSW,197,10.0,27.0,0,0.00,,,0.00,1151.000000,,2013-06-14 22:53:00,
2013-06-14 16:02:00,88.0,-99.9,-100.00,SSW,197,10.0,27.0,0,0.00,,,0.00,1151.000000,,2013-06-14 23:02:00,
2013-06-14 16:12:00,88.0,-99.9,-100.00,SSW,197,10.0,27.0,0,0.00,,,0.00,1151.000000,,2013-06-14 23:12:00,
2013-06-14 16:22:00,88.0,-99.9,-100.00,SSW,197,10.0,27.0,0,0.00,,,0.00,1151.000000,,2013-06-14 23:22:00,
2013-06-14 16:52:00,87.0,-16.0,-100.00,SSW,200,15.0,26.0,0,0.00,,,0.00,981.000000,,2013-06-14 23:52:00,
2013-06-14 17:02:00,87.0,-99.9,-100.00,SSW,200,15.0,26.0,0,0.00,,,0.00,981.000000,,2013-06-15 00:02:00,
2013-06-14 17:12:00,87.0,-99.9,-100.00,SSW,200,15.0,26.0,0,0.00,,,0.00,981.000000,,2013-06-15 00:12:00,
2013-06-14 17:23:00,87.0,-99.9,-100.00,SSW,200,15.0,26.0,0,0.00,,,0.00,981.000000,,2013-06-15 00:23:00,
2013-06-14 17:53:00,84.0,-18.0,-100.00,South,191,14.0,25.0,0,0.00,,,0.00,758.000000,,2013-06-15 00:53:00,
2013-06-14 18:02:00,84.0,-99.9,-100.00,South,191,14.0,25.0,0,0.00,,,0.00,758.000000,,2013-06-15 01:02:00,
2013-06-14 18:12:00,84.0,-99.9,-100.00,South,191,14.0,25.0,0,0.00,,,0.00,758.000000,,2013-06-15 01:12:00,
2013-06-14 18:22:00,84.0,-99.9,-100.00,South,191,14.0,25.0,0,0.00,,,0.00,758.000000,,2013-06-15 01:22:00,
2013-06-14 19:53:00,79.0,15.0,-100.00,SSW,213,17.0,34.0,9,0.00,,,0.00,206.000000,,2013-06-15 02:53:00,
2013-06-14 20:01:00,79.0,15.0,-100.00,SSW,213,17.0,34.0,9,0.00,,,0.00,206.000000,,2013-06-15 03:01:00,
2013-06-14 20:11:00,79.0,15.0,-100.00,SSW,213,17.0,34.0,9,0.00,,,0.00,206.000000,,2013-06-15 03:11:00,
2013-06-14 20:23:00,79.0,15.0,-100.00,SSW,213,17.0,34.0,9,0.00,,,0.00,206.000000,,2013-06-15 03:23:00,
2013-06-14 20:53:00,74.0,18.0,-100.00,SSW,208,15.0,27.0,12,0.00,,,0.00,10.000000,,2013-06-15 03:53:00,
2013-06-14 21:01:00,74.0,18.0,-100.00,SSW,208,15.0,27.0,12,0.00,,,0.00,10.000000,,2013-06-15 04:01:00,
2013-06-14 21:11:00,74.0,18.0,-100.00,SSW,208,15.0,27.0,12,0.00,,,0.00,10.000000,,2013-06-15 04:11:00,
2013-06-14 21:22:00,74.0,18.0,-100.00,SSW,208,15.0,27.0,12,0.00,,,0.00,10.000000,,2013-06-15 04:22:00,
2013-06-14 21:54:00,71.0,14.0,-100.00,SSW,213,13.0,22.0,11,0.00,,,0.00,0.000000,,2013-06-15 04:54:00,
2013-06-14 22:52:00,68.0,24.0,-100.00,SSW,208,12.0,21.0,19,0.00,,,0.00,0.000000,,2013-06-15 05:52:00,
2013-06-14 23:02:00,68.0,24.0,-100.00,SSW,208,12.0,21.0,19,0.00,,,0.00,0.000000,,2013-06-15 06:02:00,
2013-06-14 23:12:00,68.0,24.0,-100.00,SSW,208,12.0,21.0,19,0.00,,,0.00,0.000000,,2013-06-15 06:12:00,
2013-06-14 23:24:00,68.0,24.0,-100.00,SSW,208,12.0,21.0,19,0.00,,,0.00,0.000000,,2013-06-15 06:24:00,
2013-06-14 23:53:00,68.0,22.0,-100.00,SW,221,12.0,16.0,17,0.00,,,0.00,0.000000,,2013-06-15 06:53:00,